Terminal Aerodrome Forecast
Issued by NWS Upton, NY

Home | Current Version | Previous Version | Text Only | Print | Product List | Glossary On
Versions: 1 2 3 4 5 6 7 8 9 10 11 12 13 14 15 16 17 18 19 20 21 22 23 24 25 26 27 28 29 30
661
FTUS41 KOKX 040522
TAFEWR
TAF
KEWR 040522Z 0406/0512 31013KT P6SM BKN040
     FM041100 33012KT P6SM FEW040
     FM042100 33007KT P6SM SCT250
     FM050000 36004KT P6SM BKN250
     FM050300 03003KT P6SM BKN120 BKN250
     FM050600 09003KT 6SM -RASN SCT030 OVC080
     FM050900 11003KT 4SM -RASN BKN025 OVC040=

USA.gov is the U.S. government's official web portal to all federal, state and local government web resources and services.